createdAt,value
2018-06-28T00:01:06.900Z,99.90
2018-06-28T00:03:35.491Z,99.90
2018-06-28T00:06:04.134Z,99.90
2018-06-28T00:08:32.682Z,99.90
2018-06-28T00:11:02.292Z,99.90
2018-06-28T00:13:30.967Z,99.90
2018-06-28T00:15:59.578Z,99.90
2018-06-28T00:18:28.108Z,99.90
2018-06-28T00:20:56.675Z,99.90
2018-06-28T00:23:25.267Z,99.90
2018-06-28T00:25:53.823Z,99.90
2018-06-28T00:28:22.332Z,99.90
2018-06-28T00:30:51.137Z,99.90
2018-06-28T00:33:19.664Z,99.90
2018-06-28T00:35:48.216Z,99.90
2018-06-28T00:38:16.758Z,99.90
2018-06-28T00:40:45.471Z,99.90
2018-06-28T00:45:42.358Z,99.90
2018-06-28T00:48:10.910Z,99.90
2018-06-28T00:50:39.467Z,99.90
2018-06-28T00:53:08.075Z,99.90
2018-06-28T00:55:36.864Z,99.90
2018-06-28T00:58:05.436Z,99.90
2018-06-28T01:00:34.005Z,99.90
2018-06-28T01:03:02.602Z,99.90
2018-06-28T01:05:31.165Z,99.90
2018-06-28T01:07:59.751Z,99.90
2018-06-28T01:10:28.468Z,99.90
2018-06-28T01:12:57.025Z,99.90
2018-06-28T01:15:25.531Z,99.90
2018-06-28T01:17:54.164Z,99.90
2018-06-28T01:20:22.779Z,99.90
2018-06-28T01:22:51.344Z,99.90
2018-06-28T01:25:19.979Z,99.90
2018-06-28T01:27:48.564Z,99.90
2018-06-28T01:30:17.208Z,99.90
2018-06-28T01:32:45.796Z,99.90
2018-06-28T01:35:14.383Z,99.90
2018-06-28T01:37:42.952Z,99.90
2018-06-28T01:40:11.542Z,99.90
2018-06-28T01:42:51.634Z,99.90
2018-06-28T01:45:20.724Z,99.90
2018-06-28T01:47:49.300Z,99.90
2018-06-28T01:50:17.848Z,99.90
2018-06-28T01:52:46.365Z,99.90
2018-06-28T01:55:14.884Z,99.90
2018-06-28T01:57:43.543Z,99.90
2018-06-28T02:00:12.078Z,99.90
2018-06-28T02:02:40.625Z,99.90
2018-06-28T02:05:09.475Z,99.90
2018-06-28T02:07:37.980Z,99.90
2018-06-28T02:10:06.680Z,99.90
2018-06-28T02:12:35.308Z,99.90
2018-06-28T02:15:04.094Z,99.90
2018-06-28T02:17:32.678Z,99.90
2018-06-28T02:20:01.228Z,99.90
2018-06-28T02:22:29.824Z,99.90
2018-06-28T02:24:58.287Z,99.90
2018-06-28T02:27:26.846Z,99.90
2018-06-28T02:29:55.389Z,99.90
2018-06-28T02:32:23.872Z,99.90
2018-06-28T02:34:52.380Z,99.90
2018-06-28T02:37:20.886Z,99.90
2018-06-28T02:39:49.656Z,99.90
2018-06-28T02:42:18.185Z,99.90
2018-06-28T02:44:46.972Z,99.90
2018-06-28T02:47:15.523Z,99.90
2018-06-28T02:49:44.054Z,99.90
2018-06-28T02:52:12.638Z,99.90
2018-06-28T02:57:09.369Z,99.90
2018-06-28T02:59:37.902Z,99.90
2018-06-28T03:02:06.536Z,99.90
2018-06-28T03:04:35.152Z,99.90
2018-06-28T03:07:04.135Z,99.90
2018-06-28T03:09:32.735Z,99.90
2018-06-28T03:12:01.256Z,99.90
2018-06-28T03:14:29.816Z,99.90
2018-06-28T03:16:58.367Z,99.90
2018-06-28T03:19:26.937Z,99.90
2018-06-28T03:21:55.470Z,99.90
2018-06-28T03:24:24.122Z,99.90
2018-06-28T03:26:52.662Z,99.90
2018-06-28T03:29:21.135Z,99.90
2018-06-28T03:31:49.926Z,99.90
2018-06-28T03:34:18.707Z,99.90
2018-06-28T03:36:47.233Z,99.90
2018-06-28T03:39:15.722Z,99.90
2018-06-28T03:41:44.305Z,99.90
2018-06-28T03:44:13.896Z,99.90
2018-06-28T03:46:42.860Z,99.90
2018-06-28T03:49:12.374Z,99.90
2018-06-28T03:51:40.960Z,99.90
2018-06-28T03:54:09.753Z,99.90
2018-06-28T03:56:38.749Z,99.90
2018-06-28T03:59:07.427Z,99.90
2018-06-28T04:01:36.008Z,99.90
2018-06-28T04:04:04.585Z,99.90
2018-06-28T04:06:33.182Z,99.90
2018-06-28T04:09:02.459Z,99.90
2018-06-28T04:11:30.970Z,99.90
2018-06-28T04:13:59.597Z,99.90
2018-06-28T04:16:28.117Z,99.90
2018-06-28T04:18:56.805Z,99.90
2018-06-28T04:21:26.104Z,99.90
2018-06-28T04:23:54.996Z,99.90
2018-06-28T04:26:24.518Z,99.90
2018-06-28T04:28:53.163Z,99.90
2018-06-28T04:31:21.752Z,99.90
2018-06-28T04:33:50.969Z,99.90
2018-06-28T04:36:19.650Z,99.90
2018-06-28T04:38:48.335Z,99.90
2018-06-28T04:41:16.950Z,99.90
2018-06-28T04:43:45.581Z,99.90
2018-06-28T04:46:14.355Z,99.90
2018-06-28T04:48:43.046Z,99.90
2018-06-28T04:51:11.719Z,99.90
2018-06-28T04:53:40.334Z,99.90
2018-06-28T04:56:09.002Z,99.90
2018-06-28T04:58:37.999Z,99.90
2018-06-28T05:03:34.971Z,99.90
2018-06-28T05:06:03.677Z,99.90
2018-06-28T05:08:32.576Z,99.90
2018-06-28T05:11:01.403Z,99.90
2018-06-28T05:13:30.005Z,99.90
2018-06-28T05:15:58.796Z,99.90
2018-06-28T05:18:27.518Z,99.90
2018-06-28T05:20:56.197Z,99.90
2018-06-28T05:23:24.975Z,99.90
2018-06-28T05:25:53.541Z,99.90
2018-06-28T05:28:22.060Z,99.90
2018-06-28T05:30:50.672Z,99.90
2018-06-28T05:33:19.309Z,99.90
2018-06-28T05:35:47.893Z,99.90
2018-06-28T05:38:16.705Z,99.90
2018-06-28T05:40:45.317Z,99.90
2018-06-28T05:43:13.900Z,99.90
2018-06-28T05:45:42.749Z,99.90
2018-06-28T05:48:11.434Z,99.90
2018-06-28T05:50:40.006Z,99.90
2018-06-28T05:53:08.767Z,99.90
2018-06-28T05:55:37.642Z,99.90
2018-06-28T05:58:06.241Z,99.90
2018-06-28T06:00:34.903Z,99.90
2018-06-28T06:03:03.541Z,99.90
2018-06-28T06:05:32.170Z,99.90
2018-06-28T06:08:00.748Z,99.90
2018-06-28T06:10:29.444Z,99.90
2018-06-28T06:12:58.126Z,99.90
2018-06-28T06:15:27.068Z,99.90
2018-06-28T06:17:55.765Z,99.90
2018-06-28T06:20:24.583Z,99.90
2018-06-28T06:22:53.084Z,99.90
2018-06-28T06:25:21.667Z,99.90
2018-06-28T06:27:50.302Z,99.90
2018-06-28T06:30:18.916Z,99.90
2018-06-28T06:32:47.542Z,99.90
2018-06-28T06:35:16.151Z,99.90
2018-06-28T06:37:44.818Z,99.90
2018-06-28T06:40:13.472Z,99.90
2018-06-28T06:42:42.088Z,99.90
2018-06-28T06:45:10.630Z,99.90
2018-06-28T06:47:39.318Z,99.90
2018-06-28T06:50:07.934Z,99.90
2018-06-28T06:52:36.507Z,99.90
2018-06-28T06:55:05.168Z,99.90
2018-06-28T06:57:33.776Z,99.90
2018-06-28T07:00:02.363Z,99.90
2018-06-28T07:02:30.985Z,99.90
2018-06-28T07:04:59.644Z,99.90
2018-06-28T07:07:28.544Z,99.90
2018-06-28T07:09:57.076Z,99.90
2018-06-28T07:12:25.643Z,99.90
2018-06-28T07:14:54.231Z,99.90
2018-06-28T07:17:22.858Z,99.90
2018-06-28T07:19:51.469Z,99.90
2018-06-28T07:22:20.019Z,99.90
2018-06-28T07:24:48.693Z,99.90
2018-06-28T07:27:17.277Z,99.90
2018-06-28T07:29:46.079Z,99.90
2018-06-28T07:32:14.674Z,99.90
2018-06-28T07:34:43.271Z,99.90
2018-06-28T07:37:11.999Z,99.90
2018-06-28T07:39:41.073Z,99.90
2018-06-28T07:42:09.813Z,99.90
2018-06-28T07:44:38.450Z,99.90
2018-06-28T07:47:07.026Z,99.90
2018-06-28T07:49:35.653Z,99.90
2018-06-28T07:52:04.274Z,99.90
2018-06-28T07:54:32.915Z,99.90
2018-06-28T07:57:02.034Z,99.90
2018-06-28T07:59:30.736Z,99.90
2018-06-28T08:01:59.328Z,99.90
2018-06-28T08:04:27.937Z,99.90
2018-06-28T08:07:03.356Z,99.90
2018-06-28T08:09:31.910Z,99.90
2018-06-28T08:12:01.045Z,99.90
2018-06-28T08:14:29.580Z,99.90
2018-06-28T08:16:58.550Z,99.90
2018-06-28T08:19:27.259Z,99.90
2018-06-28T08:21:55.830Z,99.90
2018-06-28T08:24:24.442Z,99.90
2018-06-28T08:26:53.135Z,99.90
2018-06-28T08:29:22.378Z,99.90
2018-06-28T08:31:51.220Z,99.00
2018-06-28T08:34:19.934Z,99.60
2018-06-28T08:36:48.867Z,99.90
2018-06-28T08:39:17.842Z,98.50
2018-06-28T08:41:47.171Z,96.80
2018-06-28T08:44:15.725Z,96.80
2018-06-28T08:46:44.354Z,96.70
2018-06-28T08:49:14.125Z,95.00
2018-06-28T08:51:42.926Z,95.40
2018-06-28T08:54:11.718Z,94.70
2018-06-28T08:56:40.425Z,94.80
2018-06-28T09:01:37.668Z,94.10
2018-06-28T09:04:07.573Z,93.60
2018-06-28T09:06:36.177Z,91.30
2018-06-28T09:09:07.922Z,92.10
2018-06-28T09:11:36.708Z,91.80
2018-06-28T09:14:05.486Z,91.50
2018-06-28T09:16:34.180Z,92.30
2018-06-28T09:19:02.893Z,92.00
2018-06-28T09:21:31.854Z,91.30
2018-06-28T09:24:00.958Z,90.30
2018-06-28T09:26:29.554Z,91.20
2018-06-28T09:28:58.164Z,90.80
2018-06-28T09:31:27.041Z,88.80
2018-06-28T09:33:55.753Z,90.30
2018-06-28T09:36:24.428Z,91.40
2018-06-28T09:38:53.322Z,88.60
2018-06-28T09:41:21.949Z,90.00
2018-06-28T09:43:50.500Z,91.00
2018-06-28T09:46:19.185Z,89.00
2018-06-28T09:48:47.863Z,88.00
2018-06-28T09:51:16.463Z,86.30
2018-06-28T09:53:45.072Z,88.80
2018-06-28T09:56:13.647Z,87.30
2018-06-28T09:58:42.274Z,87.30
2018-06-28T10:01:10.833Z,85.10
2018-06-28T10:03:39.454Z,85.50
2018-06-28T10:06:08.138Z,83.80
2018-06-28T10:08:36.969Z,83.00
2018-06-28T10:11:05.766Z,85.90
2018-06-28T10:13:34.365Z,84.60
2018-06-28T10:16:02.962Z,83.90
2018-06-28T10:18:32.290Z,85.70
2018-06-28T10:21:00.922Z,85.10
2018-06-28T10:23:29.518Z,83.60
2018-06-28T10:25:58.090Z,84.90
2018-06-28T10:28:26.896Z,86.60
2018-06-28T10:30:55.814Z,84.10
2018-06-28T10:33:24.356Z,82.60
2018-06-28T10:35:52.944Z,82.30
2018-06-28T10:38:21.504Z,84.00
2018-06-28T10:40:50.069Z,82.10
2018-06-28T10:43:18.838Z,81.40
2018-06-28T10:45:47.390Z,80.00
2018-06-28T10:48:15.964Z,80.30
2018-06-28T10:50:44.556Z,81.80
2018-06-28T10:53:13.079Z,76.60
2018-06-28T10:55:41.674Z,75.70
2018-06-28T10:58:10.334Z,74.20
2018-06-28T11:00:38.890Z,77.40
2018-06-28T11:03:07.551Z,78.00
2018-06-28T11:05:36.520Z,77.90
2018-06-28T11:08:05.222Z,79.30
2018-06-28T11:10:33.798Z,76.40
2018-06-28T11:13:02.400Z,76.80
2018-06-28T11:15:31.096Z,77.30
2018-06-28T11:17:59.667Z,74.20
2018-06-28T11:20:28.275Z,73.00
2018-06-28T11:22:57.423Z,72.70
2018-06-28T11:25:26.854Z,72.60
2018-06-28T11:27:55.632Z,74.70
2018-06-28T11:30:25.067Z,71.40
2018-06-28T11:32:53.597Z,72.20
2018-06-28T11:35:22.282Z,73.10
2018-06-28T11:37:50.851Z,70.30
2018-06-28T11:40:19.670Z,73.00
2018-06-28T11:42:48.322Z,70.90
2018-06-28T11:45:16.934Z,71.60
2018-06-28T11:47:45.557Z,71.50
2018-06-28T11:50:14.118Z,71.40
2018-06-28T11:52:42.781Z,71.10
2018-06-28T11:55:11.379Z,70.80
2018-06-28T11:57:39.937Z,73.30
2018-06-28T12:00:08.602Z,73.10
2018-06-28T12:02:37.292Z,71.70
2018-06-28T12:05:06.040Z,68.00
2018-06-28T12:07:35.765Z,68.20
2018-06-28T12:10:05.366Z,69.20
2018-06-28T12:12:34.112Z,71.00
2018-06-28T12:15:05.017Z,70.90
2018-06-28T12:17:33.774Z,70.00
2018-06-28T12:20:02.551Z,69.50
2018-06-28T12:22:31.257Z,70.40
2018-06-28T12:25:00.920Z,70.70
2018-06-28T12:27:29.542Z,72.50
2018-06-28T12:29:58.080Z,72.40
2018-06-28T12:32:26.631Z,68.90
2018-06-28T12:34:56.391Z,69.00
2018-06-28T12:37:24.974Z,69.30
2018-06-28T12:39:54.097Z,68.70
2018-06-28T12:42:22.874Z,69.20
2018-06-28T12:44:51.434Z,68.40
2018-06-28T12:47:46.970Z,68.40
2018-06-28T12:50:15.697Z,67.10
2018-06-28T12:52:49.601Z,65.50
2018-06-28T12:55:20.134Z,70.50
2018-06-28T13:00:17.957Z,68.40
2018-06-28T13:02:46.672Z,69.30
2018-06-28T13:05:15.973Z,70.40
2018-06-28T13:07:44.604Z,72.10
2018-06-28T13:10:14.707Z,72.50
2018-06-28T13:12:44.290Z,71.00
2018-06-28T13:15:14.002Z,66.00
2018-06-28T13:17:42.993Z,64.50
2018-06-28T13:20:12.347Z,64.00
2018-06-28T13:22:41.340Z,65.40
2018-06-28T13:25:11.539Z,64.20
2018-06-28T13:27:40.245Z,65.30
2018-06-28T13:30:10.032Z,65.50
2018-06-28T13:32:38.797Z,63.00
2018-06-28T13:35:07.713Z,64.60
2018-06-28T13:37:36.418Z,63.50
2018-06-28T13:40:06.087Z,66.90
2018-06-28T13:42:34.931Z,69.00
2018-06-28T13:45:03.651Z,69.70
2018-06-28T13:50:00.680Z,68.70
2018-06-28T13:52:29.326Z,68.40
2018-06-28T13:54:58.709Z,65.10
2018-06-28T13:57:27.384Z,65.90
2018-06-28T13:59:56.023Z,68.60
2018-06-28T14:02:24.623Z,68.00
2018-06-28T14:04:53.293Z,67.30
2018-06-28T14:07:21.843Z,65.10
2018-06-28T14:09:50.476Z,66.50
2018-06-28T14:12:19.131Z,69.40
2018-06-28T14:14:47.868Z,67.50
2018-06-28T14:17:16.489Z,67.70
2018-06-28T14:19:45.094Z,68.90
2018-06-28T14:22:13.836Z,69.80
2018-06-28T14:24:42.445Z,70.10
2018-06-28T14:27:11.269Z,72.80
2018-06-28T14:29:39.844Z,72.50
2018-06-28T14:32:08.579Z,69.90
2018-06-28T14:34:37.224Z,72.10
2018-06-28T14:37:06.167Z,71.30
2018-06-28T14:39:36.172Z,72.40
2018-06-28T14:42:04.905Z,74.40
2018-06-28T14:44:33.710Z,73.90
2018-06-28T14:47:02.317Z,72.50
2018-06-28T14:49:31.871Z,70.90
2018-06-28T14:52:01.365Z,71.10
2018-06-28T14:54:30.117Z,70.30
2018-06-28T14:56:59.865Z,73.30
2018-06-28T14:59:28.507Z,73.30
2018-06-28T15:01:57.174Z,74.70
2018-06-28T15:04:26.239Z,71.20
2018-06-28T15:06:54.965Z,72.70
2018-06-28T15:09:23.622Z,71.10
2018-06-28T15:11:52.284Z,71.20
2018-06-28T15:14:21.932Z,72.70
2018-06-28T15:16:50.898Z,73.80
2018-06-28T15:19:19.717Z,73.10
2018-06-28T15:21:48.561Z,73.70
2018-06-28T15:24:17.496Z,73.30
2018-06-28T15:26:47.000Z,72.40
2018-06-28T15:29:15.912Z,73.10
2018-06-28T15:31:44.521Z,72.60
2018-06-28T15:34:13.959Z,72.40
2018-06-28T15:36:42.722Z,75.10
2018-06-28T15:39:11.561Z,74.30
2018-06-28T15:41:40.816Z,73.00
2018-06-28T15:44:09.541Z,74.80
2018-06-28T15:46:38.187Z,73.90
2018-06-28T15:49:06.989Z,75.00
2018-06-28T15:51:35.685Z,74.20
2018-06-28T15:54:04.347Z,73.80
2018-06-28T15:56:33.117Z,72.60
2018-06-28T15:59:01.730Z,74.20
2018-06-28T16:01:31.019Z,74.60
2018-06-28T16:03:59.688Z,73.20
2018-06-28T16:06:29.126Z,73.70
2018-06-28T16:08:58.109Z,72.40
2018-06-28T16:11:28.354Z,73.30
2018-06-28T16:13:57.066Z,72.70
2018-06-28T16:16:25.791Z,73.80
2018-06-28T16:18:54.696Z,74.20
2018-06-28T16:21:23.409Z,71.20
2018-06-28T16:23:52.034Z,72.80
2018-06-28T16:26:20.831Z,72.20
2018-06-28T16:28:49.662Z,73.00
2018-06-28T16:31:18.446Z,71.60
2018-06-28T16:33:47.521Z,73.20
2018-06-28T16:36:16.285Z,72.30
2018-06-28T16:38:45.787Z,73.50
2018-06-28T16:41:14.460Z,73.60
2018-06-28T16:43:43.474Z,73.50
2018-06-28T16:46:12.204Z,71.50
2018-06-28T16:48:40.845Z,73.70
2018-06-28T16:51:11.356Z,73.20
2018-06-28T16:53:40.075Z,73.30
2018-06-28T16:56:08.866Z,73.60
2018-06-28T16:58:38.384Z,73.80
2018-06-28T17:01:07.988Z,74.70
2018-06-28T17:03:36.569Z,74.30
2018-06-28T17:06:05.740Z,74.60
2018-06-28T17:08:34.584Z,74.50
2018-06-28T17:13:31.819Z,73.20
2018-06-28T17:16:00.463Z,73.90
2018-06-28T17:18:29.167Z,74.80
2018-06-28T17:23:26.819Z,74.60
2018-06-28T17:25:55.524Z,75.00
2018-06-28T17:28:24.174Z,75.00
2018-06-28T17:30:53.064Z,75.00
2018-06-28T17:33:22.339Z,76.30
2018-06-28T17:35:51.032Z,75.30
2018-06-28T17:38:19.883Z,74.80
2018-06-28T17:40:48.562Z,75.00
2018-06-28T17:43:18.483Z,75.30
2018-06-28T17:45:47.236Z,74.80
2018-06-28T17:48:15.931Z,75.50
2018-06-28T17:50:45.268Z,75.90
2018-06-28T17:53:14.038Z,75.40
2018-06-28T17:55:42.764Z,76.10
2018-06-28T17:58:11.536Z,75.40
2018-06-28T18:00:40.393Z,74.80
2018-06-28T18:03:09.167Z,75.80
2018-06-28T18:08:06.240Z,74.10
2018-06-28T18:10:34.859Z,75.00
2018-06-28T18:13:03.487Z,74.70
2018-06-28T18:15:32.177Z,76.90
2018-06-28T18:18:00.925Z,74.50
2018-06-28T18:20:29.580Z,75.70
2018-06-28T18:22:59.312Z,75.70
2018-06-28T18:25:27.977Z,75.60
2018-06-28T18:27:56.839Z,77.00
2018-06-28T18:30:25.475Z,74.90
2018-06-28T18:32:54.100Z,75.50
2018-06-28T18:35:22.827Z,75.90
2018-06-28T18:37:51.591Z,77.00
2018-06-28T18:40:20.098Z,75.40
2018-06-28T18:42:48.799Z,77.50
2018-06-28T18:45:17.667Z,76.10
2018-06-28T18:47:46.273Z,77.90
2018-06-28T18:50:14.888Z,76.90
2018-06-28T18:52:43.761Z,77.70
2018-06-28T18:55:12.633Z,77.80
2018-06-28T18:57:41.298Z,78.20
2018-06-28T19:00:10.044Z,78.30
2018-06-28T19:02:38.886Z,78.00
2018-06-28T19:05:07.427Z,80.00
2018-06-28T19:07:36.033Z,78.90
2018-06-28T19:10:10.334Z,79.40
2018-06-28T19:12:38.904Z,78.80
2018-06-28T19:15:12.922Z,78.50
2018-06-28T19:17:41.472Z,79.40
2018-06-28T19:20:10.016Z,79.80
2018-06-28T19:22:44.024Z,79.90
2018-06-28T19:25:12.573Z,79.90
2018-06-28T19:27:41.131Z,79.40
2018-06-28T19:30:15.025Z,78.70
2018-06-28T19:32:43.531Z,80.70
2018-06-28T19:35:12.066Z,80.40
2018-06-28T19:37:46.130Z,79.70
2018-06-28T19:40:20.032Z,79.80
2018-06-28T19:42:54.409Z,81.60
2018-06-28T19:45:23.159Z,80.50
2018-06-28T19:51:23.551Z,80.70
2018-06-28T19:53:52.041Z,81.40
2018-06-28T19:56:20.654Z,81.30
2018-06-28T19:58:49.652Z,81.50
2018-06-28T20:01:23.561Z,81.10
2018-06-28T20:03:57.986Z,81.10
2018-06-28T20:06:26.426Z,81.90
2018-06-28T20:08:54.948Z,82.40
2018-06-28T20:11:24.050Z,81.50
2018-06-28T20:13:58.060Z,82.90
2018-06-28T20:16:32.017Z,83.30
2018-06-28T20:19:06.064Z,83.20
2018-06-28T20:21:34.532Z,83.50
2018-06-28T20:24:03.044Z,84.40
2018-06-28T20:26:36.912Z,85.30
2018-06-28T20:31:50.333Z,86.30
2018-06-28T20:34:19.453Z,86.90
2018-06-28T20:36:48.817Z,87.30
2018-06-28T20:39:18.726Z,87.00
2018-06-28T20:41:47.399Z,87.90
2018-06-28T20:44:16.039Z,88.10
2018-06-28T20:46:44.864Z,88.00
2018-06-28T20:49:13.455Z,87.90
2018-06-28T20:51:42.017Z,87.90
2018-06-28T20:54:10.623Z,89.00
2018-06-28T20:56:39.196Z,89.20
2018-06-28T20:59:08.831Z,89.10
2018-06-28T21:01:37.441Z,90.00
2018-06-28T21:04:06.098Z,89.00
2018-06-28T21:06:34.629Z,90.20
2018-06-28T21:09:03.216Z,90.30
2018-06-28T21:11:31.759Z,90.30
2018-06-28T21:14:00.576Z,90.40
2018-06-28T21:16:29.140Z,90.50
2018-06-28T21:18:57.665Z,90.30
2018-06-28T21:21:26.269Z,90.70
2018-06-28T21:23:54.837Z,90.80
2018-06-28T21:26:23.364Z,90.80
2018-06-28T21:28:52.008Z,90.80
2018-06-28T21:31:20.516Z,91.30
2018-06-28T21:33:49.803Z,91.30
2018-06-28T21:36:18.398Z,91.80
2018-06-28T21:38:46.981Z,91.70
2018-06-28T21:41:15.535Z,91.90
2018-06-28T21:43:44.150Z,92.00
2018-06-28T21:46:13.560Z,92.20
2018-06-28T21:48:42.143Z,92.20
2018-06-28T21:51:10.710Z,92.30
2018-06-28T21:53:39.395Z,92.70
2018-06-28T21:56:08.291Z,92.70
2018-06-28T21:58:36.814Z,93.10
2018-06-28T22:01:05.410Z,93.40
2018-06-28T22:03:33.984Z,93.70
2018-06-28T22:06:02.601Z,93.90
2018-06-28T22:08:31.504Z,93.40
2018-06-28T22:11:00.090Z,93.80
2018-06-28T22:13:28.700Z,94.40
2018-06-28T22:15:57.344Z,94.40
2018-06-28T22:18:25.937Z,94.70
2018-06-28T22:20:54.558Z,94.70
2018-06-28T22:23:23.090Z,95.40
2018-06-28T22:25:51.656Z,95.80
2018-06-28T22:28:20.197Z,95.60
2018-06-28T22:30:48.703Z,95.80
2018-06-28T22:35:45.440Z,96.80
2018-06-28T22:38:13.976Z,97.40
2018-06-28T22:40:42.556Z,97.30
2018-06-28T22:43:11.147Z,97.30
2018-06-28T22:45:39.914Z,97.70
2018-06-28T22:48:08.832Z,98.60
2018-06-28T22:50:37.377Z,99.30
2018-06-28T22:53:06.262Z,99.90
2018-06-28T22:55:34.852Z,99.90
2018-06-28T22:58:03.461Z,99.90
2018-06-28T23:00:32.987Z,99.90
2018-06-28T23:03:01.571Z,99.90
2018-06-28T23:05:30.131Z,99.90
2018-06-28T23:07:58.666Z,99.90
2018-06-28T23:10:27.206Z,99.90
2018-06-28T23:12:55.776Z,99.90
2018-06-28T23:15:24.431Z,99.90
2018-06-28T23:17:53.015Z,99.90
2018-06-28T23:20:21.627Z,99.90
2018-06-28T23:22:52.008Z,99.90
2018-06-28T23:25:21.054Z,99.90
2018-06-28T23:27:50.188Z,99.90
2018-06-28T23:30:18.926Z,99.90
2018-06-28T23:32:47.546Z,99.90
2018-06-28T23:35:16.199Z,99.90
2018-06-28T23:37:44.732Z,99.90
2018-06-28T23:40:13.343Z,99.90
2018-06-28T23:42:41.907Z,99.90
2018-06-28T23:45:10.727Z,99.90
2018-06-28T23:47:39.581Z,99.90
2018-06-28T23:50:09.321Z,99.90
2018-06-28T23:52:37.923Z,99.90
2018-06-28T23:55:07.123Z,99.90
2018-06-28T23:57:36.363Z,99.90
